Time;durP1;ratioP1;P1;durP2;ratioP2;P2;SDS_P1;SDS_P2;PMS_P1;PMS_P2;Temp;Humidity;BMP_temperature;BMP_pressure;BME280_temperature;BME280_humidity;BME280_pressure;Samples;Min_cycle;Max_cycle;Signal;HPM_P1;HPM_P2
2021/03/17 00:01:11;;;;;;;;;;;7.20;92.60;;;;;;4300963;33;27866;-77
2021/03/17 00:03:41;;;;;;;;;;;7.20;92.60;;;;;;4301954;33;26806;-77
2021/03/17 00:06:09;;;;;;;;;;;7.20;92.60;;;;;;4313723;33;20395;-77
2021/03/17 00:08:36;;;;;;;;;;;7.20;92.60;;;;;;4300942;33;21527;-77
2021/03/17 00:11:03;;;;;;;;;;;7.20;92.60;;;;;;4300898;33;21854;-77
2021/03/17 00:13:32;;;;;;;;;;;7.20;92.50;;;;;;4301066;33;20095;-77
2021/03/17 00:16:01;;;;;;;;;;;7.20;92.60;;;;;;4302589;33;20066;-77
2021/03/17 00:18:34;;;;;;;;;;;7.20;92.90;;;;;;4313101;33;20483;-77
2021/03/17 00:21:04;;;;;;;;;;;7.20;92.60;;;;;;4288967;33;20061;-77
2021/03/17 00:23:33;;;;;;;;;;;7.20;92.50;;;;;;4313342;33;20057;-77
2021/03/17 00:26:02;;;;;;;;;;;7.20;92.50;;;;;;4301320;33;20014;-77
2021/03/17 00:28:31;;;;;;;;;;;7.20;92.50;;;;;;4301594;33;20052;-77
2021/03/17 00:31:03;;;;;;;;;;;7.20;92.50;;;;;;4313392;33;20045;-77
2021/03/17 00:33:30;;;;;;;;;;;7.20;92.60;;;;;;4300901;33;20166;-77
2021/03/17 00:35:57;;;;;;;;;;;7.20;92.50;;;;;;4312903;33;20360;-77
2021/03/17 00:38:26;;;;;;;;;;;7.20;92.50;;;;;;4313362;33;20026;-77
2021/03/17 00:40:56;;;;;;;;;;;7.20;92.50;;;;;;4301084;33;20388;-77
2021/03/17 00:43:26;;;;;;;;;;;7.20;92.50;;;;;;4302322;33;20014;-77
2021/03/17 00:45:54;;;;;;;;;;;7.20;92.50;;;;;;4302149;33;20020;-77
2021/03/17 00:48:22;;;;;;;;;;;7.20;92.40;;;;;;4302908;33;27169;-77
2021/03/17 00:50:54;;;;;;;;;;;7.20;92.40;;;;;;4291798;33;20010;-77
2021/03/17 00:53:26;;;;;;;;;;;7.20;92.40;;;;;;4303801;33;20471;-77
2021/03/17 00:55:55;;;;;;;;;;;7.20;92.40;;;;;;4304151;33;27980;-77
2021/03/17 00:58:26;;;;;;;;;;;7.20;92.40;;;;;;4303459;33;19995;-77
2021/03/17 01:00:53;;;;;;;;;;;7.20;92.40;;;;;;4304012;33;32628;-77
2021/03/17 01:03:20;;;;;;;;;;;7.20;92.40;;;;;;4314817;33;20073;-77
2021/03/17 01:05:47;;;;;;;;;;;7.20;92.40;;;;;;4302395;33;35253;-77
2021/03/17 01:08:17;;;;;;;;;;;7.10;92.30;;;;;;4303997;33;20030;-77
2021/03/17 01:10:47;;;;;;;;;;;7.10;92.40;;;;;;4302519;33;39592;-77
2021/03/17 01:13:14;;;;;;;;;;;7.10;92.40;;;;;;4303540;33;20014;-77
2021/03/17 01:15:46;;;;;;;;;;;7.10;92.40;;;;;;4304475;33;20067;-77
2021/03/17 01:18:14;;;;;;;;;;;7.10;92.40;;;;;;4314756;33;26812;-78
2021/03/17 01:20:45;;;;;;;;;;;7.10;92.40;;;;;;4291545;33;20091;-77
2021/03/17 01:23:15;;;;;;;;;;;7.10;92.50;;;;;;4314466;33;35869;-77
2021/03/17 01:25:43;;;;;;;;;;;7.10;92.40;;;;;;4303128;33;20404;-77
2021/03/17 01:28:15;;;;;;;;;;;7.20;92.50;;;;;;4290872;33;20068;-77
2021/03/17 01:30:53;;;;;;;;;;;7.20;92.40;;;;;;4303870;33;20014;-77
2021/03/17 01:33:23;;;;;;;;;;;7.10;92.40;;;;;;4302915;33;23390;-77
2021/03/17 01:35:52;;;;;;;;;;;7.10;92.40;;;;;;4302355;33;20018;-77
2021/03/17 01:38:23;;;;;;;;;;;7.10;92.40;;;;;;4290618;33;20010;-77
2021/03/17 01:40:50;;;;;;;;;;;7.10;92.40;;;;;;4303249;33;20049;-77
2021/03/17 01:43:20;;;;;;;;;;;7.10;92.40;;;;;;4304222;33;20062;-77
2021/03/17 01:45:50;;;;;;;;;;;7.10;92.40;;;;;;4302946;33;20388;-77
2021/03/17 01:48:20;;;;;;;;;;;7.10;92.40;;;;;;4291274;33;20003;-78
2021/03/17 01:50:53;;;;;;;;;;;7.10;92.50;;;;;;4290600;33;20052;-76
2021/03/17 01:53:40;;;;;;;;;;;7.10;92.50;;;;;;4303023;33;20095;-77
2021/03/17 01:56:08;;;;;;;;;;;7.10;92.50;;;;;;4303129;33;20026;-77
2021/03/17 01:58:36;;;;;;;;;;;7.10;92.40;;;;;;4303027;33;20396;-77
2021/03/17 02:01:06;;;;;;;;;;;7.10;92.40;;;;;;4290791;33;20021;-76
2021/03/17 02:03:33;;;;;;;;;;;7.10;92.40;;;;;;4290677;33;20456;-77
2021/03/17 02:06:03;;;;;;;;;;;7.10;92.50;;;;;;4290760;33;20066;-77
2021/03/17 02:08:29;;;;;;;;;;;7.10;92.50;;;;;;4302399;33;20018;-77
2021/03/17 02:10:56;;;;;;;;;;;7.10;92.50;;;;;;4302229;33;20026;-77
2021/03/17 02:13:27;;;;;;;;;;;7.10;92.50;;;;;;4314703;33;20024;-77
2021/03/17 02:16:04;;;;;;;;;;;7.00;92.40;;;;;;4303320;33;20044;-77
2021/03/17 02:18:50;;;;;;;;;;;7.00;92.40;;;;;;4314695;33;20018;-77
2021/03/17 02:21:22;;;;;;;;;;;7.00;92.40;;;;;;4302567;33;20011;-77
2021/03/17 02:24:07;;;;;;;;;;;7.00;92.40;;;;;;4302590;33;20049;-77
2021/03/17 02:26:52;;;;;;;;;;;7.00;92.40;;;;;;4302677;33;20041;-77
2021/03/17 02:29:25;;;;;;;;;;;7.00;92.40;;;;;;4314669;33;20066;-77
2021/03/17 02:32:12;;;;;;;;;;;7.10;92.50;;;;;;4302624;33;20049;-77
2021/03/17 02:34:46;;;;;;;;;;;7.00;92.50;;;;;;4294980;33;19999;-77
2021/03/17 02:37:20;;;;;;;;;;;7.00;92.40;;;;;;4303650;33;20025;-77
2021/03/17 02:40:06;;;;;;;;;;;7.00;92.50;;;;;;4290507;33;20030;-77
2021/03/17 02:42:55;;;;;;;;;;;7.00;92.50;;;;;;4301777;33;20403;-77
2021/03/17 02:45:28;;;;;;;;;;;7.10;92.50;;;;;;4303514;33;20050;-77
2021/03/17 02:48:12;;;;;;;;;;;7.00;92.50;;;;;;4302170;33;20026;-77
2021/03/17 02:50:46;;;;;;;;;;;7.00;92.50;;;;;;4289950;33;20038;-77
2021/03/17 02:53:22;;;;;;;;;;;7.00;92.50;;;;;;4302358;33;20006;-78
2021/03/17 02:55:51;;;;;;;;;;;7.00;92.50;;;;;;4302247;33;20058;-77
2021/03/17 02:58:18;;;;;;;;;;;7.00;92.80;;;;;;4290055;33;20006;-77
2021/03/17 03:00:51;;;;;;;;;;;7.00;92.50;;;;;;4302168;33;20066;-78
2021/03/17 03:03:19;;;;;;;;;;;7.00;92.50;;;;;;4313759;33;20010;-78
2021/03/17 03:05:52;;;;;;;;;;;7.00;92.50;;;;;;4289993;33;20002;-77
2021/03/17 03:08:28;;;;;;;;;;;7.00;92.50;;;;;;4301987;33;20006;-77
2021/03/17 03:11:00;;;;;;;;;;;7.00;92.60;;;;;;4302936;33;20018;-78
2021/03/17 03:13:30;;;;;;;;;;;7.00;92.60;;;;;;4302261;33;20029;-77
2021/03/17 03:16:12;;;;;;;;;;;6.90;92.60;;;;;;4302374;33;20073;-77
2021/03/17 03:18:41;;;;;;;;;;;6.90;92.50;;;;;;4301548;33;20070;-77
2021/03/17 03:21:21;;;;;;;;;;;7.00;92.50;;;;;;4301812;33;20112;-77
2021/03/17 03:23:55;;;;;;;;;;;7.00;92.50;;;;;;4303237;33;20430;-77
2021/03/17 03:26:22;;;;;;;;;;;7.00;92.50;;;;;;4313832;33;20069;-77
2021/03/17 03:28:52;;;;;;;;;;;7.00;92.50;;;;;;4301198;33;20042;-77
2021/03/17 03:31:21;;;;;;;;;;;7.00;92.60;;;;;;4301732;33;19994;-77
2021/03/17 03:33:54;;;;;;;;;;;7.00;92.50;;;;;;4302921;33;20050;-77
2021/03/17 03:36:26;;;;;;;;;;;7.00;92.50;;;;;;4301095;33;22660;-77
2021/03/17 03:38:56;;;;;;;;;;;7.00;92.50;;;;;;4289236;33;20003;-77
2021/03/17 03:41:25;;;;;;;;;;;7.00;92.50;;;;;;4301622;33;20024;-77
2021/03/17 03:43:57;;;;;;;;;;;7.00;92.50;;;;;;4301687;33;20022;-77
2021/03/17 03:46:38;;;;;;;;;;;7.00;92.50;;;;;;4290175;33;20022;-77
2021/03/17 03:49:11;;;;;;;;;;;7.00;92.50;;;;;;4301964;33;20010;-77
2021/03/17 03:51:46;;;;;;;;;;;6.90;92.40;;;;;;4302674;33;20057;-77
2021/03/17 03:54:16;;;;;;;;;;;6.90;92.40;;;;;;4289465;33;20045;-77
2021/03/17 03:56:49;;;;;;;;;;;6.90;92.40;;;;;;4313621;33;20074;-77
2021/03/17 03:59:23;;;;;;;;;;;6.90;92.40;;;;;;4301644;33;20022;-77
2021/03/17 04:01:55;;;;;;;;;;;6.90;92.50;;;;;;4300611;33;25384;-77
2021/03/17 04:04:30;;;;;;;;;;;6.90;92.50;;;;;;4301945;33;20474;-77
2021/03/17 04:07:06;;;;;;;;;;;6.90;92.50;;;;;;4289861;33;20332;-77
2021/03/17 04:09:43;;;;;;;;;;;6.80;92.50;;;;;;4289541;33;20006;-77
2021/03/17 04:12:14;;;;;;;;;;;6.80;92.50;;;;;;4288932;33;25820;-77
2021/03/17 04:14:52;;;;;;;;;;;6.80;92.50;;;;;;4289974;33;20017;-77
2021/03/17 04:17:27;;;;;;;;;;;6.80;92.50;;;;;;4300357;33;22559;-77
2021/03/17 04:20:03;;;;;;;;;;;6.80;92.50;;;;;;4312942;33;20057;-76
2021/03/17 04:22:36;;;;;;;;;;;6.80;92.50;;;;;;4303473;33;19991;-77
2021/03/17 04:25:12;;;;;;;;;;;6.80;92.50;;;;;;4303764;33;20332;-77
2021/03/17 04:27:41;;;;;;;;;;;6.70;92.50;;;;;;4292274;33;20002;-77
2021/03/17 04:30:13;;;;;;;;;;;6.80;92.50;;;;;;4292101;33;20010;-77
2021/03/17 04:32:42;;;;;;;;;;;6.70;92.50;;;;;;4291455;33;23583;-77
2021/03/17 04:35:12;;;;;;;;;;;6.80;92.50;;;;;;4303840;33;20026;-77
2021/03/17 04:37:43;;;;;;;;;;;6.80;92.50;;;;;;4315940;33;19995;-77
2021/03/17 04:40:15;;;;;;;;;;;6.80;92.50;;;;;;4304717;33;20689;-77
2021/03/17 04:42:48;;;;;;;;;;;6.70;92.40;;;;;;4303976;33;20065;-77
2021/03/17 04:45:23;;;;;;;;;;;6.70;92.40;;;;;;4291891;33;19999;-77
2021/03/17 04:47:53;;;;;;;;;;;6.80;92.50;;;;;;4292012;33;20054;-77
2021/03/17 04:50:25;;;;;;;;;;;6.70;92.40;;;;;;4291868;33;20018;-77
2021/03/17 04:52:54;;;;;;;;;;;6.80;92.40;;;;;;4303398;33;19998;-77
2021/03/17 04:55:34;;;;;;;;;;;6.80;92.40;;;;;;4315464;33;20084;-77
2021/03/17 04:58:04;;;;;;;;;;;6.80;92.40;;;;;;4291370;33;20129;-77
2021/03/17 05:00:37;;;;;;;;;;;6.70;92.40;;;;;;4291435;33;20424;-76
2021/03/17 05:03:14;;;;;;;;;;;6.80;92.40;;;;;;4315611;33;20033;-77
2021/03/17 05:05:43;;;;;;;;;;;6.70;92.40;;;;;;4302732;33;34729;-77
2021/03/17 05:08:15;;;;;;;;;;;6.70;92.40;;;;;;4291527;33;20002;-77
2021/03/17 05:10:45;;;;;;;;;;;6.70;92.40;;;;;;4315154;33;20384;-77
2021/03/17 05:13:19;;;;;;;;;;;6.70;92.40;;;;;;4303977;33;19998;-77
2021/03/17 05:15:50;;;;;;;;;;;6.70;92.40;;;;;;4303485;33;20363;-77
2021/03/17 05:18:20;;;;;;;;;;;6.70;92.40;;;;;;4304553;33;20078;-77
2021/03/17 05:20:51;;;;;;;;;;;6.70;92.40;;;;;;4303427;33;20018;-77
2021/03/17 05:23:23;;;;;;;;;;;6.70;92.40;;;;;;4303127;33;20003;-77
2021/03/17 05:25:58;;;;;;;;;;;6.70;92.40;;;;;;4291464;33;20063;-77
2021/03/17 05:28:29;;;;;;;;;;;6.60;92.40;;;;;;4303547;33;20050;-78
2021/03/17 05:30:59;;;;;;;;;;;6.60;92.40;;;;;;4290582;33;20006;-77
2021/03/17 05:36:33;;;;;;;;;;;6.70;92.50;;;;;;4303116;33;43623;-77
2021/03/17 05:39:05;;;;;;;;;;;6.60;92.40;;;;;;4304215;33;20021;-77
2021/03/17 05:41:38;;;;;;;;;;;6.60;92.50;;;;;;4302887;33;20006;-77
2021/03/17 05:44:05;;;;;;;;;;;6.60;92.50;;;;;;4302665;33;37142;-77
2021/03/17 05:46:35;;;;;;;;;;;6.60;92.50;;;;;;4302510;33;20008;-77
2021/03/17 05:49:04;;;;;;;;;;;6.60;92.50;;;;;;4303949;33;20061;-78
2021/03/17 05:51:41;;;;;;;;;;;6.50;92.60;;;;;;4303735;33;20412;-77
2021/03/17 05:54:10;;;;;;;;;;;6.50;92.60;;;;;;4303226;33;31774;-77
2021/03/17 05:56:37;;;;;;;;;;;6.50;92.60;;;;;;4289552;33;41109;-77
2021/03/17 05:59:05;;;;;;;;;;;6.50;92.60;;;;;;4302107;33;20006;-77
2021/03/17 06:01:34;;;;;;;;;;;6.50;92.60;;;;;;4302519;33;20147;-77
2021/03/17 06:04:04;;;;;;;;;;;6.50;92.60;;;;;;4303243;33;27158;-77
2021/03/17 06:06:33;;;;;;;;;;;6.50;92.70;;;;;;4290290;33;21319;-77
2021/03/17 06:09:01;;;;;;;;;;;6.50;92.70;;;;;;4290225;33;20025;-77
2021/03/17 06:11:33;;;;;;;;;;;6.50;92.70;;;;;;4289652;33;32848;-77
2021/03/17 06:14:05;;;;;;;;;;;6.50;92.80;;;;;;4304019;33;20024;-77
2021/03/17 06:16:37;;;;;;;;;;;6.40;92.70;;;;;;4278687;33;20007;-77
2021/03/17 06:19:09;;;;;;;;;;;6.40;92.70;;;;;;4291134;33;20058;-77
2021/03/17 06:21:42;;;;;;;;;;;6.50;92.70;;;;;;4290249;33;20012;-77
2021/03/17 06:24:10;;;;;;;;;;;6.40;92.70;;;;;;4289455;33;44232;-77
2021/03/17 06:26:40;;;;;;;;;;;6.40;92.80;;;;;;4289067;33;36653;-77
2021/03/17 06:29:08;;;;;;;;;;;6.40;92.80;;;;;;4289185;33;42934;-77
2021/03/17 06:31:35;;;;;;;;;;;6.40;92.80;;;;;;4303774;33;20065;-77
2021/03/17 06:34:06;;;;;;;;;;;6.40;92.80;;;;;;4278204;33;20301;-77
2021/03/17 06:36:33;;;;;;;;;;;6.40;92.80;;;;;;4290380;33;20040;-77
2021/03/17 06:39:07;;;;;;;;;;;6.40;92.90;;;;;;4290157;33;19994;-77
2021/03/17 06:41:46;;;;;;;;;;;6.40;92.80;;;;;;4290349;33;20024;-77
2021/03/17 06:44:21;;;;;;;;;;;6.40;92.90;;;;;;4289746;33;20012;-78
2021/03/17 06:47:06;;;;;;;;;;;6.40;92.90;;;;;;4290301;33;20025;-78
2021/03/17 06:49:41;;;;;;;;;;;6.40;92.90;;;;;;4290133;33;19998;-77
2021/03/17 06:52:28;;;;;;;;;;;6.40;92.90;;;;;;4290352;33;20040;-77
2021/03/17 06:55:05;;;;;;;;;;;6.30;92.90;;;;;;4289071;33;40930;-77
2021/03/17 06:57:36;;;;;;;;;;;6.40;93.00;;;;;;4277563;33;20074;-77
2021/03/17 07:00:20;;;;;;;;;;;6.40;92.90;;;;;;4289867;33;20016;-77
2021/03/17 07:02:56;;;;;;;;;;;6.40;92.90;;;;;;4277595;33;20032;-78
2021/03/17 07:05:38;;;;;;;;;;;6.40;92.90;;;;;;4288440;33;45849;-77
2021/03/17 07:08:06;;;;;;;;;;;6.40;92.90;;;;;;4276928;33;37092;-77
2021/03/17 07:10:55;;;;;;;;;;;6.40;92.90;;;;;;4302777;33;19994;-77
2021/03/17 07:13:24;;;;;;;;;;;6.40;92.90;;;;;;4276821;33;40088;-77
2021/03/17 07:15:55;;;;;;;;;;;6.40;92.90;;;;;;4302140;33;32271;-77
2021/03/17 07:18:26;;;;;;;;;;;6.40;92.90;;;;;;4288567;33;44849;-77
2021/03/17 07:20:57;;;;;;;;;;;6.40;93.00;;;;;;4277752;33;20050;-77
2021/03/17 07:23:34;;;;;;;;;;;6.40;93.00;;;;;;4301850;33;20421;-77
2021/03/17 07:26:09;;;;;;;;;;;6.40;93.00;;;;;;4302457;33;20126;-77
2021/03/17 07:28:48;;;;;;;;;;;6.40;93.00;;;;;;4277863;33;20002;-77
2021/03/17 07:31:19;;;;;;;;;;;6.40;93.10;;;;;;4289172;33;20049;-77
2021/03/17 07:33:53;;;;;;;;;;;6.40;93.00;;;;;;4289900;33;20029;-78
2021/03/17 07:36:49;;;;;;;;;;;6.40;93.00;;;;;;4288573;33;43739;-78
2021/03/17 07:39:18;;;;;;;;;;;6.40;93.10;;;;;;4278763;33;43899;-78
2021/03/17 07:41:45;;;;;;;;;;;6.40;93.10;;;;;;4288804;33;31021;-77
2021/03/17 07:44:15;;;;;;;;;;;6.40;93.10;;;;;;4288282;33;32208;-78
2021/03/17 07:46:53;;;;;;;;;;;6.40;93.10;;;;;;4288666;33;23748;-78
2021/03/17 07:49:47;;;;;;;;;;;6.40;93.20;;;;;;4291921;33;20085;-77
2021/03/17 07:52:19;;;;;;;;;;;6.40;93.20;;;;;;4288888;33;30753;-77
2021/03/17 07:54:52;;;;;;;;;;;6.40;93.20;;;;;;4278038;33;19999;-77
2021/03/17 07:57:20;;;;;;;;;;;6.30;93.20;;;;;;4290255;33;37521;-77
2021/03/17 07:59:56;;;;;;;;;;;6.40;93.20;;;;;;4291033;33;43951;-77
2021/03/17 08:02:23;;;;;;;;;;;6.40;93.20;;;;;;4296758;33;20002;-77
2021/03/17 08:04:50;;;;;;;;;;;6.40;93.20;;;;;;4291379;33;33610;-77
2021/03/17 08:07:18;;;;;;;;;;;6.40;93.20;;;;;;4290906;33;43463;-77
2021/03/17 08:09:47;;;;;;;;;;;6.40;93.30;;;;;;4302969;33;46535;-77
2021/03/17 08:12:16;;;;;;;;;;;6.40;93.30;;;;;;4303815;33;43592;-78
2021/03/17 08:14:43;;;;;;;;;;;6.40;93.30;;;;;;4303273;33;34504;-79
2021/03/17 08:17:12;;;;;;;;;;;6.40;93.30;;;;;;4315984;33;20507;-77
2021/03/17 08:20:18;;;;;;;;;;;6.40;93.30;;;;;;4305676;33;28336;-78
2021/03/17 08:22:49;;;;;;;;;;;6.40;93.40;;;;;;4291233;33;40247;-78
2021/03/17 08:25:37;;;;;;;;;;;6.40;93.40;;;;;;4291234;33;30104;-78
2021/03/17 08:28:24;;;;;;;;;;;6.50;93.40;;;;;;4290725;33;44706;-78
2021/03/17 08:30:52;;;;;;;;;;;6.50;93.40;;;;;;4292179;33;20020;-78
2021/03/17 08:33:34;;;;;;;;;;;6.50;93.40;;;;;;4304113;33;20013;-79
2021/03/17 08:36:09;;;;;;;;;;;6.50;93.40;;;;;;4303622;33;20100;-77
2021/03/17 08:39:01;;;;;;;;;;;6.50;93.40;;;;;;4304066;33;22206;-77
2021/03/17 08:41:37;;;;;;;;;;;6.50;93.40;;;;;;4304597;33;20002;-78
2021/03/17 08:44:11;;;;;;;;;;;6.50;93.40;;;;;;4292167;33;20013;-77
2021/03/17 08:46:38;;;;;;;;;;;6.60;93.50;;;;;;4282451;33;20017;-78
2021/03/17 08:49:06;;;;;;;;;;;6.60;93.50;;;;;;4279226;33;42086;-77
2021/03/17 08:51:46;;;;;;;;;;;6.60;93.50;;;;;;4278701;33;20025;-77
2021/03/17 08:54:31;;;;;;;;;;;6.60;93.40;;;;;;4286724;33;20434;-76
2021/03/17 08:57:05;;;;;;;;;;;6.60;93.40;;;;;;4282055;33;43256;-76
2021/03/17 08:59:40;;;;;;;;;;;6.60;93.40;;;;;;4280832;33;43632;-79
2021/03/17 09:02:16;;;;;;;;;;;6.60;93.50;;;;;;4280707;33;43673;-75
2021/03/17 09:04:47;;;;;;;;;;;6.60;93.50;;;;;;4280236;33;20014;-75
2021/03/17 09:07:17;;;;;;;;;;;6.60;93.50;;;;;;4280634;33;20071;-75
2021/03/17 09:09:57;;;;;;;;;;;6.60;93.50;;;;;;4281778;33;20010;-75
2021/03/17 09:12:27;;;;;;;;;;;6.60;93.50;;;;;;4268007;33;43685;-76
2021/03/17 09:15:15;;;;;;;;;;;6.60;93.50;;;;;;4282066;33;20043;-75
2021/03/17 09:17:46;;;;;;;;;;;6.60;93.40;;;;;;4281107;33;43383;-75
2021/03/17 09:20:15;;;;;;;;;;;6.60;93.50;;;;;;4281068;33;20011;-75
2021/03/17 09:22:45;;;;;;;;;;;6.70;93.50;;;;;;4279655;33;39059;-75
2021/03/17 09:25:17;;;;;;;;;;;6.70;93.50;;;;;;4282028;33;44671;-77
2021/03/17 09:27:48;;;;;;;;;;;6.70;93.40;;;;;;4284066;33;20007;-76
2021/03/17 09:30:15;;;;;;;;;;;6.70;93.40;;;;;;4283534;33;20023;-76
2021/03/17 09:32:43;;;;;;;;;;;6.70;93.40;;;;;;4282375;33;43721;-77
2021/03/17 09:35:11;;;;;;;;;;;6.70;93.40;;;;;;4284996;33;20018;-77
2021/03/17 09:37:37;;;;;;;;;;;6.70;93.40;;;;;;4281835;33;20015;-75
2021/03/17 09:40:05;;;;;;;;;;;6.70;93.40;;;;;;4268049;33;19999;-78
2021/03/17 09:42:38;;;;;;;;;;;6.70;93.40;;;;;;4268354;33;20089;-78
2021/03/17 09:45:08;;;;;;;;;;;6.70;93.40;;;;;;4268877;33;20043;-76
2021/03/17 09:47:35;;;;;;;;;;;6.70;93.40;;;;;;4291555;33;20457;-76
2021/03/17 09:50:02;;;;;;;;;;;6.70;93.40;;;;;;4267304;33;40196;-76
2021/03/17 09:52:29;;;;;;;;;;;6.70;93.50;;;;;;4280040;33;43680;-76
2021/03/17 09:54:56;;;;;;;;;;;6.70;93.50;;;;;;4279286;33;39623;-76
2021/03/17 09:57:27;;;;;;;;;;;6.70;93.40;;;;;;4290256;33;38528;-76
2021/03/17 09:59:55;;;;;;;;;;;6.70;93.40;;;;;;4267498;33;45340;-76
2021/03/17 10:02:25;;;;;;;;;;;6.70;93.40;;;;;;4280479;33;36387;-76
2021/03/17 10:04:57;;;;;;;;;;;6.70;93.50;;;;;;4289654;33;45657;-76
2021/03/17 10:07:25;;;;;;;;;;;6.80;93.50;;;;;;4280321;33;44803;-76
2021/03/17 10:09:54;;;;;;;;;;;6.80;93.50;;;;;;4268545;33;43327;-75
2021/03/17 10:12:22;;;;;;;;;;;6.80;93.50;;;;;;4290551;33;43468;-76
2021/03/17 10:14:52;;;;;;;;;;;6.80;93.40;;;;;;4279928;33;20082;-76
2021/03/17 10:17:20;;;;;;;;;;;6.80;93.40;;;;;;4279711;33;45028;-76
2021/03/17 10:19:49;;;;;;;;;;;6.80;93.40;;;;;;4277729;33;44976;-76
2021/03/17 10:22:19;;;;;;;;;;;6.80;93.40;;;;;;4278427;33;39154;-76
2021/03/17 10:24:48;;;;;;;;;;;6.80;93.30;;;;;;4287036;33;41869;-76
2021/03/17 10:27:16;;;;;;;;;;;6.80;93.70;;;;;;4279663;33;40557;-76
2021/03/17 10:29:43;;;;;;;;;;;6.80;93.30;;;;;;4280617;33;20086;-75
2021/03/17 10:32:13;;;;;;;;;;;6.80;93.30;;;;;;4280713;33;20393;-77
2021/03/17 10:34:40;;;;;;;;;;;6.80;93.30;;;;;;4281160;33;20376;-75
2021/03/17 10:37:10;;;;;;;;;;;6.80;93.30;;;;;;4280745;33;20059;-74
2021/03/17 10:39:40;;;;;;;;;;;6.80;93.30;;;;;;4290343;33;20016;-74
2021/03/17 10:42:17;;;;;;;;;;;6.80;93.30;;;;;;4280314;33;19999;-74
2021/03/17 10:44:43;;;;;;;;;;;6.80;93.30;;;;;;4280639;33;20010;-74
2021/03/17 10:47:11;;;;;;;;;;;6.80;93.30;;;;;;4268214;33;20376;-74
2021/03/17 10:49:44;;;;;;;;;;;6.80;93.20;;;;;;4280863;33;20015;-74
2021/03/17 10:52:12;;;;;;;;;;;6.90;93.30;;;;;;4279088;33;20570;-75
2021/03/17 10:54:40;;;;;;;;;;;6.80;93.20;;;;;;4269608;33;38587;-74
2021/03/17 10:57:09;;;;;;;;;;;6.90;93.30;;;;;;4287852;33;20033;-75
2021/03/17 10:59:37;;;;;;;;;;;6.80;93.30;;;;;;4287345;33;20021;-74
2021/03/17 11:02:22;;;;;;;;;;;6.90;93.30;;;;;;4288062;33;20022;-74
2021/03/17 11:05:05;;;;;;;;;;;6.80;93.20;;;;;;4274507;33;43469;-75
2021/03/17 11:07:50;;;;;;;;;;;6.90;93.30;;;;;;4288560;33;20033;-75
2021/03/17 11:10:28;;;;;;;;;;;6.90;93.30;;;;;;4275052;33;20034;-74
2021/03/17 11:12:55;;;;;;;;;;;6.90;93.30;;;;;;4287674;33;20013;-74
2021/03/17 11:15:32;;;;;;;;;;;6.90;93.30;;;;;;4288571;33;20065;-74
2021/03/17 11:18:00;;;;;;;;;;;6.90;93.30;;;;;;4287427;33;20014;-74
2021/03/17 11:20:27;;;;;;;;;;;6.90;93.20;;;;;;4287217;33;20033;-74
2021/03/17 11:22:54;;;;;;;;;;;6.90;93.30;;;;;;4275779;33;20013;-74
2021/03/17 11:25:24;;;;;;;;;;;6.90;93.30;;;;;;4287415;33;20347;-74
2021/03/17 11:27:54;;;;;;;;;;;6.90;93.20;;;;;;4287276;33;20021;-74
2021/03/17 11:30:21;;;;;;;;;;;6.90;93.20;;;;;;4275172;33;20539;-74
2021/03/17 11:32:49;;;;;;;;;;;6.90;93.20;;;;;;4287150;33;20013;-74
2021/03/17 11:35:16;;;;;;;;;;;6.90;93.20;;;;;;4287918;33;20024;-74
2021/03/17 11:37:42;;;;;;;;;;;6.90;93.20;;;;;;4275294;33;20079;-74
2021/03/17 11:40:09;;;;;;;;;;;6.90;93.10;;;;;;4275213;33;20026;-74
2021/03/17 11:42:36;;;;;;;;;;;6.90;93.10;;;;;;4287755;33;20003;-74
2021/03/17 11:45:16;;;;;;;;;;;6.90;93.10;;;;;;4288499;33;20058;-74
2021/03/17 11:47:43;;;;;;;;;;;6.90;93.10;;;;;;4286510;33;20092;-74
2021/03/17 11:50:12;;;;;;;;;;;6.90;93.10;;;;;;4288058;33;20019;-74
2021/03/17 11:52:50;;;;;;;;;;;6.90;93.10;;;;;;4275329;33;20054;-74
2021/03/17 11:55:20;;;;;;;;;;;6.90;93.50;;;;;;4274642;33;20025;-74
2021/03/17 11:57:48;;;;;;;;;;;6.90;93.10;;;;;;4275592;33;20015;-74
2021/03/17 12:00:15;;;;;;;;;;;7.00;93.10;;;;;;4274768;33;20007;-74
2021/03/17 12:02:45;;;;;;;;;;;7.00;93.10;;;;;;4281346;33;20025;-74
2021/03/17 12:05:12;;;;;;;;;;;7.00;93.10;;;;;;4288540;33;20030;-74
2021/03/17 12:07:49;;;;;;;;;;;7.00;93.10;;;;;;4288163;33;20040;-74
2021/03/17 12:10:17;;;;;;;;;;;7.00;93.10;;;;;;4288178;33;20015;-74
2021/03/17 12:12:45;;;;;;;;;;;7.00;93.00;;;;;;4287901;33;20015;-74
2021/03/17 12:15:16;;;;;;;;;;;7.00;93.00;;;;;;4298759;33;20082;-74
2021/03/17 12:17:46;;;;;;;;;;;7.00;93.10;;;;;;4287115;33;20081;-74
2021/03/17 12:20:16;;;;;;;;;;;7.00;93.10;;;;;;4287340;33;20014;-74
2021/03/17 12:22:48;;;;;;;;;;;7.00;93.00;;;;;;4298953;33;20029;-74
2021/03/17 12:25:18;;;;;;;;;;;7.00;93.00;;;;;;4288194;33;20014;-74
2021/03/17 12:27:47;;;;;;;;;;;7.00;92.90;;;;;;4286646;33;20022;-74
2021/03/17 12:30:15;;;;;;;;;;;7.00;92.80;;;;;;4298887;33;20062;-74
2021/03/17 12:32:47;;;;;;;;;;;7.00;92.80;;;;;;4287465;33;20003;-74
2021/03/17 12:35:17;;;;;;;;;;;7.00;92.80;;;;;;4298567;33;20052;-74
2021/03/17 12:37:47;;;;;;;;;;;7.00;92.70;;;;;;4299298;33;20002;-74
2021/03/17 12:40:18;;;;;;;;;;;7.00;92.70;;;;;;4288191;33;20020;-74
2021/03/17 12:42:45;;;;;;;;;;;7.00;92.70;;;;;;4287573;33;20002;-74
2021/03/17 12:45:13;;;;;;;;;;;7.00;92.60;;;;;;4290747;33;20074;-74
2021/03/17 12:47:40;;;;;;;;;;;7.00;92.60;;;;;;4290298;33;20010;-74
2021/03/17 12:50:13;;;;;;;;;;;7.00;92.60;;;;;;4301383;33;20070;-74
2021/03/17 12:52:42;;;;;;;;;;;7.00;92.50;;;;;;4290629;33;19999;-74
2021/03/17 12:55:13;;;;;;;;;;;7.00;92.50;;;;;;4290066;33;20069;-74
2021/03/17 12:57:40;;;;;;;;;;;7.00;92.40;;;;;;4290046;33;20015;-74
2021/03/17 13:00:13;;;;;;;;;;;7.00;92.40;;;;;;4290375;33;20003;-74
2021/03/17 13:02:40;;;;;;;;;;;7.00;92.40;;;;;;4288930;33;20083;-74
2021/03/17 13:05:08;;;;;;;;;;;7.00;92.40;;;;;;4301561;33;19999;-74
2021/03/17 13:07:35;;;;;;;;;;;7.00;92.30;;;;;;4290171;33;20010;-74
2021/03/17 13:10:03;;;;;;;;;;;7.00;92.40;;;;;;4301086;33;20384;-74
2021/03/17 13:12:35;;;;;;;;;;;7.00;92.40;;;;;;4289825;33;20379;-74
2021/03/17 13:15:06;;;;;;;;;;;7.00;92.30;;;;;;4290151;33;20027;-74
2021/03/17 13:17:33;;;;;;;;;;;7.00;92.30;;;;;;4299545;33;43433;-74
2021/03/17 13:20:11;;;;;;;;;;;7.00;92.30;;;;;;4299436;33;44550;-74
2021/03/17 13:22:37;;;;;;;;;;;7.00;92.30;;;;;;4289071;33;38202;-74
2021/03/17 13:25:05;;;;;;;;;;;7.00;92.30;;;;;;4289034;33;41411;-74
2021/03/17 13:27:31;;;;;;;;;;;7.00;92.30;;;;;;4288898;33;43668;-74
2021/03/17 13:29:59;;;;;;;;;;;7.10;92.30;;;;;;4288966;33;40374;-75
2021/03/17 13:32:28;;;;;;;;;;;7.10;92.30;;;;;;4288929;33;44293;-74
2021/03/17 13:34:55;;;;;;;;;;;7.00;92.30;;;;;;4288442;33;44654;-75
2021/03/17 13:37:22;;;;;;;;;;;7.10;92.30;;;;;;4299808;33;44129;-74
2021/03/17 13:39:50;;;;;;;;;;;7.10;92.30;;;;;;4299866;33;33961;-74
2021/03/17 13:42:17;;;;;;;;;;;7.10;92.30;;;;;;4299585;33;43187;-74
2021/03/17 13:44:44;;;;;;;;;;;7.10;92.20;;;;;;4288695;33;43664;-74
2021/03/17 13:47:10;;;;;;;;;;;7.10;92.20;;;;;;4299654;33;39136;-74
2021/03/17 13:49:37;;;;;;;;;;;7.10;92.20;;;;;;4275426;33;35462;-74
2021/03/17 13:52:07;;;;;;;;;;;7.10;92.10;;;;;;4299297;33;44368;-74
2021/03/17 13:54:34;;;;;;;;;;;7.10;92.10;;;;;;4287638;33;34230;-74
2021/03/17 13:57:02;;;;;;;;;;;7.10;92.10;;;;;;4288654;33;36480;-74
2021/03/17 13:59:29;;;;;;;;;;;7.10;92.10;;;;;;4289427;33;20011;-74
2021/03/17 14:01:56;;;;;;;;;;;7.10;92.00;;;;;;4288960;33;20011;-74
2021/03/17 14:04:23;;;;;;;;;;;7.10;92.00;;;;;;4288474;33;20113;-74
2021/03/17 14:06:49;;;;;;;;;;;7.10;92.00;;;;;;4276540;33;20014;-74
2021/03/17 14:09:18;;;;;;;;;;;7.10;92.00;;;;;;4289479;33;20006;-74
2021/03/17 14:11:45;;;;;;;;;;;7.10;92.00;;;;;;4288927;33;20400;-74
2021/03/17 14:14:14;;;;;;;;;;;7.10;92.00;;;;;;4287709;33;20022;-74
2021/03/17 14:16:41;;;;;;;;;;;7.10;92.00;;;;;;4289131;33;20356;-74
2021/03/17 14:19:09;;;;;;;;;;;7.10;92.00;;;;;;4289022;33;20022;-74
2021/03/17 14:21:36;;;;;;;;;;;7.10;92.00;;;;;;4300102;33;20006;-75
2021/03/17 14:24:05;;;;;;;;;;;7.10;92.00;;;;;;4287984;33;20070;-74
2021/03/17 14:26:33;;;;;;;;;;;7.20;92.00;;;;;;4286544;33;45323;-74
2021/03/17 14:29:04;;;;;;;;;;;7.10;91.90;;;;;;4288122;33;42300;-74
2021/03/17 14:31:33;;;;;;;;;;;7.10;91.90;;;;;;4286795;33;43632;-74
2021/03/17 14:34:04;;;;;;;;;;;7.20;91.90;;;;;;4286422;33;43879;-74
2021/03/17 14:36:31;;;;;;;;;;;7.20;91.90;;;;;;4288191;33;37029;-74
2021/03/17 14:38:57;;;;;;;;;;;7.20;91.90;;;;;;4287885;33;43321;-74
2021/03/17 14:41:27;;;;;;;;;;;7.20;91.90;;;;;;4287923;33;20010;-74
2021/03/17 14:43:56;;;;;;;;;;;7.20;91.90;;;;;;4286569;33;32989;-74
2021/03/17 14:46:25;;;;;;;;;;;7.20;91.80;;;;;;4286529;33;45549;-74
2021/03/17 14:48:52;;;;;;;;;;;7.20;91.80;;;;;;4287491;33;36850;-74
2021/03/17 14:51:19;;;;;;;;;;;7.20;91.80;;;;;;4286159;33;44488;-74
2021/03/17 14:53:45;;;;;;;;;;;7.20;91.80;;;;;;4287546;33;43375;-74
2021/03/17 14:56:12;;;;;;;;;;;7.20;91.80;;;;;;4287979;33;25574;-74
2021/03/17 14:58:42;;;;;;;;;;;7.20;91.70;;;;;;4288678;33;20479;-75